Time;durP1;ratioP1;P1;durP2;ratioP2;P2;SDS_P1;SDS_P2;PMS_P1;PMS_P2;Temp;Humidity;BMP_temperature;BMP_pressure;BME280_temperature;BME280_humidity;BME280_pressure;Samples;Min_cycle;Max_cycle;Signal;HPM_P1;HPM_P2
2021/11/27 00:02:08;;;;;;;14;8.6;;;;;;;0.76;95.23633;914.8901;;;;
2021/11/27 00:04:33;;;;;;;12.9;9.1;;;;;;;0.7;95.48926;914.9022;;;;
2021/11/27 00:06:58;;;;;;;12.2;7.5;;;;;;;0.85;95.46875;914.856;;;;
2021/11/27 00:09:27;;;;;;;14.4;8.4;;;;;;;0.92;95.06055;914.6817;;;;
2021/11/27 00:11:52;;;;;;;14.5;8.7;;;;;;;0.94;94.51758;914.8189;;;;
2021/11/27 00:14:18;;;;;;;14.1;9;;;;;;;0.78;94.81641;914.8097;;;;
2021/11/27 00:16:45;;;;;;;12.6;7.6;;;;;;;0.89;94.84277;914.7324;;;;
2021/11/27 00:19:12;;;;;;;12;8.2;;;;;;;0.98;94.55957;914.6805;;;;
2021/11/27 00:26:56;;;;;;;9.7;6.6;;;;;;;0.97;93.89844;914.5606;;;;
2021/11/27 00:29:22;;;;;;;11.8;6.9;;;;;;;0.93;94.20117;914.471;;;;
2021/11/27 00:31:46;;;;;;;9.8;6.5;;;;;;;0.84;94.57129;914.483;;;;
2021/11/27 00:34:13;;;;;;;12.9;7;;;;;;;0.83;94.98242;914.4031;;;;
2021/11/27 00:36:37;;;;;;;9;6.4;;;;;;;0.89;95.08594;914.452;;;;
2021/11/27 00:39:05;;;;;;;9.3;6.4;;;;;;;0.77;95.43848;914.3781;;;;
2021/11/27 00:41:30;;;;;;;11.2;7.4;;;;;;;0.78;95.73145;914.2921;;;;
2021/11/27 00:43:58;;;;;;;11.4;7.2;;;;;;;0.77;95.8291;914.2372;;;;
2021/11/27 00:46:23;;;;;;;10.3;6.8;;;;;;;0.73;95.91992;914.2071;;;;
2021/11/27 00:48:50;;;;;;;10.8;6.6;;;;;;;0.69;96.2334;914.1058;;;;
2021/11/27 00:51:15;;;;;;;11;7;;;;;;;0.72;96.38867;914.1116;;;;
2021/11/27 00:53:41;;;;;;;11;7.1;;;;;;;0.74;96.16699;914.1445;;;;
2021/11/27 00:56:06;;;;;;;11;6.8;;;;;;;0.67;96.2959;914.1965;;;;
2021/11/27 00:58:33;;;;;;;10.7;7.1;;;;;;;0.7;96.24805;914.1255;;;;
2021/11/27 01:00:58;;;;;;;13;7.4;;;;;;;0.68;96.58789;914.1175;;;;
2021/11/27 01:03:24;;;;;;;12;7.4;;;;;;;0.69;96.80176;914.0698;;;;
2021/11/27 01:05:54;;;;;;;11.1;7.3;;;;;;;0.76;96.77441;914.0005;;;;
2021/11/27 01:08:24;;;;;;;11.6;8;;;;;;;0.83;96.61426;914.0475;;;;
2021/11/27 01:10:49;;;;;;;13.7;7.7;;;;;;;0.76;96.36133;913.9465;;;;
2021/11/27 01:13:14;;;;;;;9.8;6.9;;;;;;;0.77;96.47656;913.9959;;;;
2021/11/27 01:15:41;;;;;;;10.2;6.6;;;;;;;0.72;96.73438;913.9542;;;;
2021/11/27 01:18:11;;;;;;;9.5;6.1;;;;;;;0.64;96.87012;913.9146;;;;
2021/11/27 01:20:37;;;;;;;9.5;6.7;;;;;;;0.68;97.00098;913.9139;;;;
2021/11/27 01:23:02;;;;;;;10.3;6.7;;;;;;;0.7;96.99609;913.8444;;;;
2021/11/27 01:25:27;;;;;;;9.2;6.5;;;;;;;0.75;96.74023;913.8658;;;;
2021/11/27 01:27:55;;;;;;;10.9;6.9;;;;;;;0.64;96.87012;913.8441;;;;
2021/11/27 01:30:21;;;;;;;10.3;6.5;;;;;;;0.78;96.52344;913.8057;;;;
2021/11/27 01:32:50;;;;;;;11.3;7.3;;;;;;;0.95;95.74805;913.7771;;;;
2021/11/27 01:35:15;;;;;;;10.8;7.3;;;;;;;1.04;95.58789;913.8045;;;;
2021/11/27 01:37:41;;;;;;;10.3;6.7;;;;;;;0.95;95.89258;913.7952;;;;
2021/11/27 01:40:06;;;;;;;9.7;6.7;;;;;;;1.03;95.33105;913.777;;;;
2021/11/27 01:42:34;;;;;;;10.2;6.5;;;;;;;0.9;94.90918;913.7119;;;;
2021/11/27 01:44:59;;;;;;;9.7;6.7;;;;;;;1.03;95.01758;913.6329;;;;
2021/11/27 01:47:24;;;;;;;9.7;6.7;;;;;;;1.02;94.55566;913.567;;;;
2021/11/27 01:50:09;;;;;;;11.4;7.8;;;;;;;1.12;94.30078;913.5087;;;;
2021/11/27 01:52:34;;;;;;;10.7;7.1;;;;;;;1.11;94.0957;913.4585;;;;
2021/11/27 01:55:12;;;;;;;8.5;6.4;;;;;;;1.12;94.09961;913.5142;;;;
2021/11/27 01:57:37;;;;;;;8.4;6.3;;;;;;;1.16;93.98535;913.4603;;;;
2021/11/27 02:00:07;;;;;;;9.9;6.4;;;;;;;1.01;94.37695;913.3383;;;;
2021/11/27 02:02:34;;;;;;;9.7;5.9;;;;;;;1.04;94.32715;913.3767;;;;
2021/11/27 02:05:04;;;;;;;8.3;5.8;;;;;;;1.05;94.25098;913.3203;;;;
2021/11/27 02:07:30;;;;;;;9.1;6.2;;;;;;;1.02;94.27734;913.2881;;;;
2021/11/27 02:09:55;;;;;;;8.2;5.5;;;;;;;0.94;94.32813;913.235;;;;
2021/11/27 02:12:24;;;;;;;8.2;5.8;;;;;;;0.93;94.625;913.2938;;;;
2021/11/27 02:14:49;;;;;;;7.2;5.3;;;;;;;0.92;94.48047;913.2514;;;;
2021/11/27 02:17:14;;;;;;;6.5;4.9;;;;;;;1.04;94.24902;913.1989;;;;
2021/11/27 02:19:44;;;;;;;8.1;5.5;;;;;;;1.03;93.83398;913.2302;;;;
2021/11/27 02:22:09;;;;;;;7.7;5.3;;;;;;;1.03;94.13574;913.2286;;;;
2021/11/27 02:24:34;;;;;;;7;4.8;;;;;;;1.11;93.59375;913.2148;;;;
2021/11/27 02:26:59;;;;;;;8;5.4;;;;;;;1.12;93.2627;913.2008;;;;
2021/11/27 02:29:25;;;;;;;7.4;5.1;;;;;;;1.19;93.04199;913.2042;;;;
2021/11/27 02:31:50;;;;;;;7.8;5.3;;;;;;;1.2;92.68652;913.1532;;;;
2021/11/27 02:34:56;;;;;;;7;4.9;;;;;;;1.26;92.65527;913.134;;;;
2021/11/27 02:37:26;;;;;;;7;4.9;;;;;;;1.45;91.4541;913.0078;;;;
2021/11/27 02:39:56;;;;;;;7.8;5.3;;;;;;;1.39;91.67676;913.0161;;;;
2021/11/27 02:42:21;;;;;;;6.3;4.8;;;;;;;1.46;91.7041;912.9522;;;;
2021/11/27 02:44:48;;;;;;;6.8;4.8;;;;;;;1.43;91.51953;913.0117;;;;
2021/11/27 02:47:14;;;;;;;7.7;5;;;;;;;1.3;91.5459;912.9453;;;;
2021/11/27 02:49:39;;;;;;;8.4;5.1;;;;;;;1.32;91.62988;912.9916;;;;
2021/11/27 02:52:05;;;;;;;5.9;4.4;;;;;;;1.25;92.0498;913.0244;;;;
2021/11/27 02:54:29;;;;;;;6.3;4.6;;;;;;;1.14;92.2832;912.9924;;;;
2021/11/27 02:56:57;;;;;;;8.1;5.4;;;;;;;1.02;93.37402;912.9725;;;;
2021/11/27 02:59:21;;;;;;;8;5.3;;;;;;;1.03;94.24707;912.9584;;;;
2021/11/27 03:01:52;;;;;;;6.5;4.8;;;;;;;1.15;94.03711;912.9846;;;;
2021/11/27 03:04:20;;;;;;;7;4.8;;;;;;;1.09;93.9248;912.9037;;;;
2021/11/27 03:06:45;;;;;;;6.8;5;;;;;;;1.08;94.23535;912.8669;;;;
2021/11/27 03:09:42;;;;;;;9.3;5.6;;;;;;;1.01;94.8125;912.8933;;;;
2021/11/27 03:12:12;;;;;;;7.6;5.3;;;;;;;1.11;94.35254;912.9312;;;;
2021/11/27 03:14:37;;;;;;;8.4;5.9;;;;;;;0.93;95.17188;912.8567;;;;
2021/11/27 03:17:03;;;;;;;8;5.5;;;;;;;0.88;95.59766;912.8761;;;;
2021/11/27 03:19:28;;;;;;;10.5;6.1;;;;;;;0.88;95.67578;912.9089;;;;
2021/11/27 03:21:54;;;;;;;9.7;5.5;;;;;;;0.86;95.96191;912.9418;;;;
2021/11/27 03:24:23;;;;;;;8.2;5.3;;;;;;;0.86;95.84961;912.9042;;;;
2021/11/27 03:26:48;;;;;;;7.8;5.4;;;;;;;0.85;95.74707;912.84;;;;
2021/11/27 03:29:18;;;;;;;6.9;5.2;;;;;;;0.87;95.84961;912.7312;;;;
2021/11/27 03:31:43;;;;;;;8.8;5.5;;;;;;;0.83;96.02051;912.7795;;;;
2021/11/27 03:34:11;;;;;;;8;5;;;;;;;0.71;96.62988;912.7059;;;;
2021/11/27 03:37:25;;;;;;;7.5;5.2;;;;;;;0.89;96.29199;912.6639;;;;
2021/11/27 03:39:53;;;;;;;7.6;5;;;;;;;0.89;95.78906;912.6106;;;;
2021/11/27 03:42:18;;;;;;;6.8;4.8;;;;;;;0.89;95.72266;912.6591;;;;
2021/11/27 03:44:45;;;;;;;6.6;4.6;;;;;;;0.96;95.6377;912.7197;;;;
2021/11/27 03:47:11;;;;;;;7.7;5;;;;;;;0.89;95.39844;912.692;;;;
2021/11/27 03:49:36;;;;;;;6.7;5;;;;;;;0.91;95.55859;912.6428;;;;
2021/11/27 03:52:04;;;;;;;7.6;5.3;;;;;;;0.93;95.70801;912.7447;;;;
2021/11/27 03:54:29;;;;;;;7.4;4.8;;;;;;;0.89;95.68848;912.6905;;;;
2021/11/27 03:56:54;;;;;;;8.1;5.5;;;;;;;0.8;96.02539;912.6547;;;;
2021/11/27 03:59:21;;;;;;;9.1;6;;;;;;;0.73;96.56738;912.7061;;;;
2021/11/27 04:02:31;;;;;;;7.4;5.4;;;;;;;0.59;97.35059;912.7137;;;;
2021/11/27 04:04:56;;;;;;;9;5.9;;;;;;;0.63;97.30273;912.6719;;;;
2021/11/27 04:07:24;;;;;;;9.4;5.8;;;;;;;0.64;97.4502;912.6588;;;;
2021/11/27 04:09:49;;;;;;;7.6;5.1;;;;;;;0.63;97.30273;912.7205;;;;
2021/11/27 04:12:20;;;;;;;7.4;5.5;;;;;;;0.87;96.80078;912.6944;;;;
2021/11/27 04:14:50;;;;;;;8.1;5.7;;;;;;;1.01;95.79297;912.6011;;;;
2021/11/27 04:17:23;;;;;;;7.9;5.4;;;;;;;0.9;95.65723;912.5347;;;;
2021/11/27 04:19:53;;;;;;;7.9;5.8;;;;;;;0.8;96.00293;912.6609;;;;
2021/11/27 04:22:22;;;;;;;10.9;6.9;;;;;;;0.75;96.39453;912.6028;;;;
2021/11/27 04:24:47;;;;;;;9;6.1;;;;;;;0.76;96.45215;912.6271;;;;
2021/11/27 04:30:09;;;;;;;9;6;;;;;;;1.04;95.73242;912.7578;;;;
2021/11/27 04:32:37;;;;;;;8;5.3;;;;;;;1.02;95.04688;912.6857;;;;
2021/11/27 04:35:02;;;;;;;8.1;5.9;;;;;;;1.02;95.29297;912.677;;;;
2021/11/27 04:37:27;;;;;;;7.9;5.5;;;;;;;0.98;95.36328;912.5561;;;;
2021/11/27 04:39:52;;;;;;;8.6;5.5;;;;;;;1.07;95.26074;912.66;;;;
2021/11/27 04:42:18;;;;;;;7.2;5.2;;;;;;;0.93;95.50684;912.642;;;;
2021/11/27 04:44:43;;;;;;;7.9;5.1;;;;;;;0.92;95.69531;912.7117;;;;
2021/11/27 04:47:08;;;;;;;8.1;5.5;;;;;;;0.99;95.95703;912.7511;;;;
2021/11/27 04:50:25;;;;;;;7;5.4;;;;;;;0.98;95.58594;912.7252;;;;
2021/11/27 04:52:50;;;;;;;7.3;5.6;;;;;;;1.1;94.84473;912.61;;;;
2021/11/27 04:55:19;;;;;;;6.4;4.9;;;;;;;0.82;95.85254;912.6347;;;;
2021/11/27 04:57:44;;;;;;;6.4;5.1;;;;;;;0.74;96.61523;912.6528;;;;
2021/11/27 05:00:15;;;;;;;6.9;5.2;;;;;;;0.67;97.22168;912.5555;;;;
2021/11/27 05:02:40;;;;;;;8;5.8;;;;;;;0.65;97.53027;912.6799;;;;
2021/11/27 05:05:14;;;;;;;9.2;6.3;;;;;;;0.62;98.03906;912.6273;;;;
2021/11/27 05:07:39;;;;;;;9.1;5.9;;;;;;;0.68;97.91797;912.5986;;;;
2021/11/27 05:10:13;;;;;;;7.4;5.4;;;;;;;0.76;97.63574;912.5997;;;;
2021/11/27 05:12:38;;;;;;;7;5.4;;;;;;;0.94;97.07422;912.5795;;;;
2021/11/27 05:15:12;;;;;;;7.6;5.1;;;;;;;1.04;96.25781;912.551;;;;
2021/11/27 05:17:37;;;;;;;7.4;5.4;;;;;;;1.07;95.64063;912.5527;;;;
2021/11/27 05:20:10;;;;;;;8.3;5.2;;;;;;;1.04;95.59863;912.4225;;;;
2021/11/27 05:22:35;;;;;;;8.3;5.6;;;;;;;0.96;95.72559;912.4518;;;;
2021/11/27 05:25:01;;;;;;;21.3;11.8;;;;;;;0.89;96.11328;912.4445;;;;
2021/11/27 05:33:10;;;;;;;10.2;6.4;;;;;;;0.84;97.18359;912.399;;;;
2021/11/27 05:35:21;;;;;;;15.4;8.7;;;;;;;0.83;97.07129;912.3825;;;;
2021/11/27 05:37:47;;;;;;;26.2;13;;;;;;;0.75;97.3877;912.3217;;;;
2021/11/27 05:40:12;;;;;;;14.5;9.7;;;;;;;0.78;97.50586;912.3859;;;;
2021/11/27 05:42:38;;;;;;;7.9;5.9;;;;;;;0.76;97.56641;912.4203;;;;
2021/11/27 05:45:03;;;;;;;7.2;5.6;;;;;;;0.93;97.18164;912.4337;;;;
2021/11/27 05:47:30;;;;;;;7;5.2;;;;;;;0.86;97.12207;912.4938;;;;
2021/11/27 05:49:55;;;;;;;6.6;5;;;;;;;0.87;97.25879;912.4875;;;;
2021/11/27 05:52:22;;;;;;;7.4;5.1;;;;;;;0.66;97.7666;912.5006;;;;
2021/11/27 05:54:47;;;;;;;7.4;5.2;;;;;;;0.62;98.36035;912.5912;;;;
2021/11/27 05:57:14;;;;;;;7.7;5.5;;;;;;;0.63;98.63086;912.6359;;;;
2021/11/27 05:59:39;;;;;;;7.1;5.2;;;;;;;0.68;98.48438;912.6431;;;;
2021/11/27 06:02:09;;;;;;;8.3;5;;;;;;;0.72;98.22949;912.5917;;;;
2021/11/27 06:04:39;;;;;;;6.1;4.8;;;;;;;0.64;98.33301;912.5061;;;;
2021/11/27 06:07:04;;;;;;;8.5;5.9;;;;;;;0.69;98.10938;912.5634;;;;
2021/11/27 06:09:30;;;;;;;8.7;5.9;;;;;;;0.57;98.49512;912.6017;;;;
2021/11/27 06:11:55;;;;;;;8;5.8;;;;;;;0.64;98.27539;912.5553;;;;
2021/11/27 06:14:23;;;;;;;11.5;7;;;;;;;0.74;97.84082;912.5948;;;;
2021/11/27 06:16:52;;;;;;;10.4;6.5;;;;;;;0.79;97.52832;912.577;;;;
2021/11/27 06:19:47;;;;;;;8.4;6;;;;;;;0.82;97.58105;912.6495;;;;
2021/11/27 06:22:16;;;;;;;7.9;5.6;;;;;;;0.98;97.09375;912.7056;;;;
2021/11/27 06:24:41;;;;;;;10.8;6.6;;;;;;;0.89;96.80469;912.6373;;;;
2021/11/27 06:27:08;;;;;;;9.7;6.1;;;;;;;0.96;96.30566;912.7056;;;;
2021/11/27 06:29:33;;;;;;;8;6;;;;;;;1.01;95.56055;912.6567;;;;
2021/11/27 06:32:08;;;;;;;8.9;6.4;;;;;;;1.12;95.18164;912.6241;;;;
2021/11/27 06:34:28;;;;;;;9;5.9;;;;;;;1.1;95.34473;912.6789;;;;
2021/11/27 06:36:53;;;;;;;8.4;5.5;;;;;;;1.1;95.41406;912.6625;;;;
2021/11/27 06:39:22;;;;;;;8.6;6.2;;;;;;;1.13;95.13867;912.668;;;;
2021/11/27 06:41:46;;;;;;;10.7;6.9;;;;;;;1.19;95.27539;912.7324;;;;
2021/11/27 06:44:13;;;;;;;13;8.2;;;;;;;1.19;95.52344;912.8318;;;;
2021/11/27 06:46:38;;;;;;;10.1;6.4;;;;;;;1.3;94.88867;912.8544;;;;
2021/11/27 06:49:06;;;;;;;7.9;5.7;;;;;;;1.1;95.25781;912.8497;;;;
2021/11/27 06:51:31;;;;;;;11.9;7.9;;;;;;;1.24;95.31934;912.7822;;;;
2021/11/27 06:53:56;;;;;;;15.5;10;;;;;;;1.21;95.26855;912.8173;;;;
2021/11/27 06:56:21;;;;;;;14.6;9;;;;;;;1.14;95.44238;912.9227;;;;
2021/11/27 06:58:51;;;;;;;10.3;6.5;;;;;;;1.08;95.73145;912.957;;;;
2021/11/27 07:01:16;;;;;;;12.6;9.7;;;;;;;0.95;96.23926;912.9241;;;;
2021/11/27 07:03:44;;;;;;;11.7;8.5;;;;;;;1.15;96.27344;912.9431;;;;
2021/11/27 07:06:14;;;;;;;8.7;6.2;;;;;;;1.19;95.64648;912.9667;;;;
2021/11/27 07:08:39;;;;;;;9.1;6.2;;;;;;;1.29;95.18652;912.9751;;;;
2021/11/27 07:11:08;;;;;;;10.9;7.7;;;;;;;1.28;94.93848;912.9586;;;;
2021/11/27 07:13:36;;;;;;;14.1;9.5;;;;;;;1.27;95.05957;913.0048;;;;
2021/11/27 07:16:08;;;;;;;13.8;9.4;;;;;;;1.27;95.07031;913.0197;;;;
2021/11/27 07:18:38;;;;;;;11.3;7.9;;;;;;;1.19;95.34473;913.0529;;;;
2021/11/27 07:21:01;;;;;;;10.6;7.6;;;;;;;1.03;95.67676;913.0783;;;;
2021/11/27 07:23:28;;;;;;;12.1;7.9;;;;;;;1.22;95.33789;913.1323;;;;
2021/11/27 07:25:54;;;;;;;11.8;7.9;;;;;;;1.19;94.94238;913.2065;;;;
2021/11/27 07:28:21;;;;;;;13.1;8.9;;;;;;;1.08;95.46387;913.2672;;;;
2021/11/27 07:30:46;;;;;;;12.4;7.8;;;;;;;1.1;95.58105;913.2783;;;;
2021/11/27 07:33:13;;;;;;;12.1;7.7;;;;;;;1.33;95.42188;913.3522;;;;
2021/11/27 07:35:38;;;;;;;16;9.7;;;;;;;1.58;94.26953;913.3813;;;;
2021/11/27 07:38:03;;;;;;;12.7;8.1;;;;;;;1.62;93.30469;913.4483;;;;
2021/11/27 07:40:29;;;;;;;17.3;10.6;;;;;;;1.68;93.18262;913.5112;;;;
2021/11/27 07:42:58;;;;;;;11.5;7.6;;;;;;;1.67;93.08008;913.4406;;;;
2021/11/27 07:45:22;;;;;;;8.9;6.2;;;;;;;1.74;93.0752;913.3239;;;;
2021/11/27 07:48:08;;;;;;;9;5.8;;;;;;;1.87;92.82324;913.4443;;;;
2021/11/27 07:50:34;;;;;;;7.6;5.4;;;;;;;1.83;92.74609;913.4599;;;;
2021/11/27 07:53:00;;;;;;;7.4;5.4;;;;;;;1.97;91.99414;913.4688;;;;
2021/11/27 07:55:29;;;;;;;12.4;5.9;;;;;;;2.07;91.75684;913.4989;;;;
2021/11/27 07:57:54;;;;;;;8.5;6.2;;;;;;;2.06;91.91309;913.444;;;;
2021/11/27 08:00:24;;;;;;;27.8;13.1;;;;;;;2.17;91.15332;913.5067;;;;
2021/11/27 08:02:49;;;;;;;21.4;12.4;;;;;;;2.13;91.19922;913.6096;;;;
2021/11/27 08:05:38;;;;;;;25.9;13.5;;;;;;;2.12;91.08594;913.7076;;;;
2021/11/27 08:08:06;;;;;;;17.6;10.4;;;;;;;2.21;90.29883;913.7449;;;;
2021/11/27 08:10:31;;;;;;;11.5;6.5;;;;;;;2.32;90.24512;913.7214;;;;
2021/11/27 08:12:58;;;;;;;10.9;6.5;;;;;;;2.41;90.32031;913.7578;;;;
2021/11/27 08:15:23;;;;;;;7.3;5.3;;;;;;;2.21;88.33887;913.8014;;;;
2021/11/27 08:17:49;;;;;;;9.3;5.2;;;;;;;2.48;88.68652;913.7672;;;;
2021/11/27 08:20:18;;;;;;;10.2;5.4;;;;;;;2.56;88.08691;913.8181;;;;
2021/11/27 08:22:50;;;;;;;12.6;6.1;;;;;;;2.59;87.38672;913.7608;;;;
2021/11/27 08:25:22;;;;;;;10.6;7.2;;;;;;;2.39;88.16406;913.8415;;;;
2021/11/27 08:27:52;;;;;;;11.6;7;;;;;;;2.58;87.12695;913.7654;;;;
2021/11/27 08:30:17;;;;;;;25.3;7.8;;;;;;;2.7;87.41113;913.7507;;;;
2021/11/27 08:32:47;;;;;;;17.9;8.9;;;;;;;2.78;87.06738;913.753;;;;
2021/11/27 08:35:08;;;;;;;20.4;9.7;;;;;;;2.79;86.66504;913.7584;;;;
2021/11/27 08:37:33;;;;;;;21.3;10.4;;;;;;;2.68;87.71973;913.8237;;;;
2021/11/27 08:39:58;;;;;;;20.8;11.2;;;;;;;3.02;87.07227;913.9228;;;;
2021/11/27 08:42:23;;;;;;;24.6;13;;;;;;;3.18;86.25098;913.9334;;;;
2021/11/27 08:44:54;;;;;;;27.6;13.7;;;;;;;3.35;85.68066;913.9551;;;;
2021/11/27 08:47:22;;;;;;;19.8;8.8;;;;;;;3.45;85.38672;914.062;;;;
2021/11/27 08:49:47;;;;;;;8.5;5.7;;;;;;;3.61;84.19434;914.0034;;;;
2021/11/27 08:52:13;;;;;;;7.2;5.5;;;;;;;3.58;83.86133;914.0034;;;;
2021/11/27 08:54:38;;;;;;;12.6;7.9;;;;;;;3.43;83.53906;914.0275;;;;
2021/11/27 08:57:04;;;;;;;16.1;9.8;;;;;;;2.86;87.78125;914.1507;;;;
2021/11/27 08:59:29;;;;;;;18.5;11.3;;;;;;;2.81;89.67578;914.1476;;;;
2021/11/27 09:01:56;;;;;;;17.5;11.3;;;;;;;2.99;89.30859;914.1717;;;;
2021/11/27 09:04:21;;;;;;;17.9;11;;;;;;;3.1;87.89648;914.2292;;;;
2021/11/27 09:06:47;;;;;;;16.6;10.3;;;;;;;3.09;88.42188;914.252;;;;
2021/11/27 09:09:12;;;;;;;14.5;9.4;;;;;;;3;88.3584;914.2451;;;;
2021/11/27 09:11:39;;;;;;;12.6;8.8;;;;;;;3.57;86.30859;914.2473;;;;
2021/11/27 09:14:04;;;;;;;13.9;7.7;;;;;;;3.86;83.8584;914.1931;;;;
2021/11/27 09:16:29;;;;;;;11.9;6.8;;;;;;;3.95;82.23828;914.1186;;;;
2021/11/27 09:18:55;;;;;;;10.7;6.9;;;;;;;4.13;82.73242;914.0887;;;;
2021/11/27 09:21:21;;;;;;;20.1;7.6;;;;;;;4.59;81.51563;914.1208;;;;
2021/11/27 09:23:46;;;;;;;13.9;7.8;;;;;;;4.81;79.91211;914.0723;;;;
2021/11/27 09:26:12;;;;;;;18.1;9.4;;;;;;;5.03;79.63965;914.0698;;;;
2021/11/27 09:28:37;;;;;;;17.5;10.1;;;;;;;5.03;79.60547;913.9642;;;;
2021/11/27 09:31:04;;;;;;;15.2;9.4;;;;;;;5.06;79.53125;914.1508;;;;
2021/11/27 09:36:01;;;;;;;13.8;8.5;;;;;;;4.9;78.79102;914.0889;;;;
2021/11/27 09:38:28;;;;;;;12.6;8;;;;;;;5.08;79.00488;914.0568;;;;
2021/11/27 09:40:54;;;;;;;9.3;6.8;;;;;;;4.95;77.92188;914.0711;;;;
2021/11/27 09:43:21;;;;;;;8.4;5.8;;;;;;;4.84;77.79004;914.0949;;;;
2021/11/27 09:45:47;;;;;;;9;6.1;;;;;;;4.79;78.07324;914.1195;;;;
2021/11/27 09:48:13;;;;;;;8.6;6;;;;;;;4.89;77.84473;914.0581;;;;
2021/11/27 09:50:38;;;;;;;9.8;6.8;;;;;;;4.73;79.36816;914.1878;;;;
2021/11/27 09:53:06;;;;;;;8.2;5.8;;;;;;;4.76;78.65234;914.2711;;;;
2021/11/27 09:55:31;;;;;;;8;6;;;;;;;4.88;79.74609;914.2553;;;;
2021/11/27 09:57:57;;;;;;;7.9;6;;;;;;;4.87;79.94727;914.2477;;;;
2021/11/27 10:00:22;;;;;;;8.8;5.9;;;;;;;5.45;77.94336;914.2422;;;;
2021/11/27 10:02:48;;;;;;;7.8;5.6;;;;;;;5.14;77.46094;914.2147;;;;
2021/11/27 10:05:14;;;;;;;8;5.9;;;;;;;4.83;79.2627;914.1865;;;;
2021/11/27 10:07:42;;;;;;;7.9;5.3;;;;;;;4.85;78.72656;914.2139;;;;
2021/11/27 10:10:06;;;;;;;8;5.5;;;;;;;4.79;79.10938;914.2369;;;;
2021/11/27 10:12:33;;;;;;;9;5.6;;;;;;;5.27;77.19043;914.2145;;;;
2021/11/27 10:14:58;;;;;;;11.5;6.4;;;;;;;5.52;74.70801;914.1545;;;;
2021/11/27 10:17:29;;;;;;;8.8;6.6;;;;;;;4.75;76.96191;914.2151;;;;
2021/11/27 10:20:00;;;;;;;9.6;6.5;;;;;;;5.28;77.47363;914.1861;;;;
2021/11/27 10:22:28;;;;;;;9;6.1;;;;;;;5.11;76.56348;914.1772;;;;
2021/11/27 10:24:53;;;;;;;8.8;5.7;;;;;;;4.74;78.25488;914.1578;;;;
2021/11/27 10:27:18;;;;;;;10;6.9;;;;;;;4.88;78.77637;914.1261;;;;
2021/11/27 10:29:45;;;;;;;10.6;7.1;;;;;;;5.09;77.96973;914.1008;;;;
2021/11/27 10:32:11;;;;;;;13.7;8.8;;;;;;;4.84;77.47461;914.0949;;;;
2021/11/27 10:34:37;;;;;;;10;7;;;;;;;4.94;78.21387;914.0428;;;;
2021/11/27 10:37:02;;;;;;;13.7;8;;;;;;;5.29;78.51367;914.0187;;;;
2021/11/27 10:39:27;;;;;;;8.5;7.1;;;;;;;5.18;77.87305;914.0148;;;;
2021/11/27 10:41:54;;;;;;;10.6;8.1;;;;;;;5.11;77.58984;914.032;;;;
2021/11/27 10:44:19;;;;;;;13.8;10.5;;;;;;;4.84;78.45313;914.0334;;;;
2021/11/27 10:46:46;;;;;;;7.7;6.7;;;;;;;5.15;78.69336;914.045;;;;
2021/11/27 10:49:12;;;;;;;6.8;5.1;;;;;;;4.81;77.15234;914.0778;;;;
2021/11/27 10:51:39;;;;;;;7.3;5.5;;;;;;;4.86;76.68848;914.1294;;;;
2021/11/27 10:54:04;;;;;;;6.9;5.3;;;;;;;4.45;77.33496;914.1763;;;;
2021/11/27 10:56:31;;;;;;;10.2;6.4;;;;;;;4.37;79.15625;914.2386;;;;
2021/11/27 10:58:57;;;;;;;10;5.9;;;;;;;4.73;79.62891;914.2619;;;;
2021/11/27 11:01:24;;;;;;;7.3;5.5;;;;;;;4.91;77.68848;914.2047;;;;
2021/11/27 11:03:50;;;;;;;7.8;5.4;;;;;;;4.53;76.8877;914.2852;;;;
2021/11/27 11:06:15;;;;;;;9;5.6;;;;;;;4.44;78.67383;914.3267;;;;
2021/11/27 11:08:43;;;;;;;7.4;5.2;;;;;;;4.35;77.91113;914.2869;;;;
2021/11/27 11:11:08;;;;;;;7;5.3;;;;;;;4.19;79.78613;914.275;;;;
2021/11/27 11:13:36;;;;;;;7.6;5.2;;;;;;;4.09;79.66504;914.356;;;;
2021/11/27 11:16:05;;;;;;;8.4;6;;;;;;;4.25;80.44922;914.3245;;;;
2021/11/27 11:18:30;;;;;;;10;6.3;;;;;;;4.64;79.51074;914.2878;;;;
2021/11/27 11:20:59;;;;;;;6.6;5.4;;;;;;;4.79;77.9043;914.2338;;;;
2021/11/27 11:23:25;;;;;;;7.6;5.8;;;;;;;4.91;78.25195;914.2527;;;;
2021/11/27 11:25:53;;;;;;;7.9;6;;;;;;;4.82;76.99805;914.2291;;;;
2021/11/27 11:28:18;;;;;;;7.6;5.8;;;;;;;5.04;76.74414;914.2408;;;;
2021/11/27 11:30:44;;;;;;;8.4;6;;;;;;;5.46;75.30664;914.1892;;;;
2021/11/27 11:33:08;;;;;;;7.2;5.2;;;;;;;5.56;73.03418;914.1628;;;;
2021/11/27 11:35:36;;;;;;;7.2;5.4;;;;;;;5.8;74.72363;914.109;;;;
2021/11/27 11:38:01;;;;;;;6.5;4.8;;;;;;;6.25;74.80176;914.0009;;;;
2021/11/27 11:40:27;;;;;;;6.7;4.5;;;;;;;6.38;70.87793;913.9894;;;;
2021/11/27 11:42:52;;;;;;;5.9;4.2;;;;;;;6.64;69.77637;914.0036;;;;
2021/11/27 11:45:19;;;;;;;5.3;4.6;;;;;;;6.82;70.76855;914.0312;;;;
2021/11/27 11:47:45;;;;;;;5.8;4.1;;;;;;;6.87;70.61914;914.0082;;;;
2021/11/27 11:50:10;;;;;;;6.3;4.8;;;;;;;6.96;69.30859;914.0392;;;;
2021/11/27 11:52:36;;;;;;;5.6;4.3;;;;;;;6.98;66.85449;913.951;;;;
2021/11/27 11:55:00;;;;;;;7.4;5.4;;;;;;;7.07;69.55273;913.9863;;;;
2021/11/27 11:57:25;;;;;;;10;7.4;;;;;;;6.89;71.4043;914.0396;;;;
2021/11/27 11:59:51;;;;;;;9.9;6.6;;;;;;;6.91;71.91699;913.9949;;;;
2021/11/27 12:02:16;;;;;;;10.1;6.1;;;;;;;6.72;72.87988;914.0687;;;;
2021/11/27 12:04:41;;;;;;;9.1;5.9;;;;;;;6.69;71.42676;914.0645;;;;
2021/11/27 12:07:06;;;;;;;6;4.4;;;;;;;6.37;70.64063;914.048;;;;
2021/11/27 12:09:33;;;;;;;7.3;4.9;;;;;;;6.54;71.56055;914.1044;;;;
2021/11/27 12:11:59;;;;;;;7.1;5.6;;;;;;;6.55;71.25684;914.1992;;;;
2021/11/27 12:14:24;;;;;;;9.1;6.1;;;;;;;6.38;71.72559;914.1498;;;;
2021/11/27 12:16:48;;;;;;;9.2;6.5;;;;;;;6.49;71.41797;914.2102;;;;
2021/11/27 12:19:14;;;;;;;7.4;5.4;;;;;;;6.33;71.7959;914.1808;;;;
2021/11/27 12:21:43;;;;;;;6.7;4.6;;;;;;;6.38;72.60742;914.2148;;;;
2021/11/27 12:24:08;;;;;;;6.3;4.5;;;;;;;6.4;72.67871;914.1639;;;;
2021/11/27 12:26:36;;;;;;;6.5;4.6;;;;;;;6.38;71.47754;914.1926;;;;
2021/11/27 12:29:04;;;;;;;6.3;4.9;;;;;;;6.19;72.44141;914.2375;;;;
2021/11/27 12:31:29;;;;;;;6.1;4.5;;;;;;;6.13;71.7627;914.2115;;;;
2021/11/27 12:33:57;;;;;;;5.8;4.7;;;;;;;6;73.06348;914.3384;;;;
2021/11/27 12:36:23;;;;;;;5.9;4.2;;;;;;;5.91;72.62988;914.3728;;;;
2021/11/27 12:38:48;;;;;;;7.3;4.9;;;;;;;6.03;72.96582;914.4048;;;;
2021/11/27 12:41:16;;;;;;;7.3;4.9;;;;;;;6.06;72.45215;914.3759;;;;
2021/11/27 12:43:41;;;;;;;7.6;4.9;;;;;;;6.06;72.8252;914.4122;;;;
2021/11/27 12:46:09;;;;;;;7.3;5.1;;;;;;;5.86;73.43359;914.4639;;;;
2021/11/27 12:48:31;;;;;;;6.4;5.1;;;;;;;5.82;74.83984;914.3989;;;;
2021/11/27 12:51:00;;;;;;;8.2;6;;;;;;;5.78;75.23926;914.4233;;;;
2021/11/27 12:53:29;;;;;;;7.2;5.4;;;;;;;5.77;75.54102;914.4156;;;;
2021/11/27 12:55:55;;;;;;;8.2;5.8;;;;;;;5.86;75.60254;914.4639;;;;
2021/11/27 12:58:20;;;;;;;8.3;5.9;;;;;;;5.83;75.5752;914.4721;;;;
2021/11/27 13:00:45;;;;;;;8.9;6.1;;;;;;;5.82;75.60742;914.4422;;;;
2021/11/27 13:03:12;;;;;;;8.7;5.8;;;;;;;5.71;75.52051;914.3699;;;;
2021/11/27 13:05:37;;;;;;;8.5;5.8;;;;;;;5.6;76.33691;914.3439;;;;
2021/11/27 13:08:04;;;;;;;8.2;5.9;;;;;;;5.63;76.41992;914.325;;;;
2021/11/27 13:10:29;;;;;;;8.2;5.7;;;;;;;5.7;76.2959;914.3131;;;;
2021/11/27 13:12:54;;;;;;;8.3;5.5;;;;;;;5.74;76.31543;914.3971;;;;
2021/11/27 13:15:19;;;;;;;8.8;5.9;;;;;;;5.77;76.32227;914.4306;;;;
2021/11/27 13:17:44;;;;;;;8.9;6.2;;;;;;;5.63;76.89648;914.4219;;;;
2021/11/27 13:20:13;;;;;;;9.4;6.1;;;;;;;5.55;77.81641;914.3862;;;;
2021/11/27 13:22:38;;;;;;;9.7;6.8;;;;;;;5.47;77.82422;914.3153;;;;
2021/11/27 13:25:10;;;;;;;9.6;6.5;;;;;;;5.1;79.99121;914.4194;;;;
2021/11/27 13:27:38;;;;;;;8.2;5.9;;;;;;;4.96;80.41309;914.4471;;;;
2021/11/27 13:30:08;;;;;;;9.6;6.6;;;;;;;4.79;81.42871;914.416;;;;
2021/11/27 13:32:37;;;;;;;11.2;8;;;;;;;4.64;81.74023;914.4422;;;;
2021/11/27 13:35:02;;;;;;;9;6.2;;;;;;;4.66;81.81152;914.4728;;;;
2021/11/27 13:37:28;;;;;;;8;5.9;;;;;;;4.68;82.35547;914.5027;;;;
2021/11/27 13:39:54;;;;;;;8.4;5.6;;;;;;;4.81;82.40234;914.5217;;;;
2021/11/27 13:42:20;;;;;;;7.8;5.6;;;;;;;4.87;81.45898;914.5219;;;;
2021/11/27 13:44:46;;;;;;;8.8;5.3;;;;;;;4.89;81.26855;914.5218;;;;
2021/11/27 13:47:10;;;;;;;7.9;6;;;;;;;5.04;81.00488;914.5808;;;;
2021/11/27 13:49:35;;;;;;;6.4;5;;;;;;;5.13;80.27637;914.6297;;;;
2021/11/27 13:52:00;;;;;;;6.8;4.7;;;;;;;5.06;79.22754;914.5719;;;;
2021/11/27 13:54:27;;;;;;;6;4.4;;;;;;;5.06;79.7793;914.6902;;;;
2021/11/27 13:56:52;;;;;;;6.3;4.7;;;;;;;4.89;80.06445;914.7236;;;;
2021/11/27 13:59:20;;;;;;;6;4.5;;;;;;;5.04;79.71973;914.7313;;;;
2021/11/27 14:01:45;;;;;;;5.8;4.6;;;;;;;5.17;78.94238;914.6742;;;;
2021/11/27 14:04:10;;;;;;;6.8;4.7;;;;;;;5.13;79.07129;914.6423;;;;
2021/11/27 14:06:37;;;;;;;5.9;4.5;;;;;;;5.23;78.7627;914.6653;;;;
2021/11/27 14:09:06;;;;;;;6;4.5;;;;;;;5.09;79.28906;914.7151;;;;
2021/11/27 14:11:27;;;;;;;6.7;4.7;;;;;;;5.21;79.00586;914.6994;;;;
2021/11/27 14:13:59;;;;;;;6.5;4.7;;;;;;;5.24;78.9209;914.722;;;;
2021/11/27 14:16:29;;;;;;;6.3;4.7;;;;;;;5.21;79.01758;914.7001;;;;
2021/11/27 14:18:54;;;;;;;6.8;4.6;;;;;;;5.23;79.06738;914.7615;;;;
2021/11/27 14:21:19;;;;;;;6.3;5.1;;;;;;;5.04;79.79883;914.8599;;;;
2021/11/27 14:23:48;;;;;;;8.1;5.4;;;;;;;4.99;80.02539;914.9183;;;;
2021/11/27 14:26:13;;;;;;;11;6.8;;;;;;;4.89;80.91016;914.9317;;;;
2021/11/27 14:28:38;;;;;;;19.1;9.9;;;;;;;4.96;81.10254;914.9194;;;;
2021/11/27 14:31:03;;;;;;;13.8;8.7;;;;;;;4.95;81.57422;914.9439;;;;
2021/11/27 14:33:29;;;;;;;12;7.4;;;;;;;4.78;81.30273;915.0253;;;;
2021/11/27 14:35:54;;;;;;;9.1;6.1;;;;;;;4.66;82.45313;915.1002;;;;
2021/11/27 14:39:08;;;;;;;8.3;5.4;;;;;;;4.52;82.18945;915.0739;;;;
2021/11/27 14:41:32;;;;;;;9.3;5.9;;;;;;;4.68;82.09473;915.1347;;;;
2021/11/27 14:43:57;;;;;;;9.6;5.2;;;;;;;4.67;81.98242;915.1135;;;;
2021/11/27 14:46:24;;;;;;;6.9;4.8;;;;;;;4.53;82.25879;915.1881;;;;
2021/11/27 14:48:49;;;;;;;6.3;4.6;;;;;;;4.77;81.69531;915.25;;;;
2021/11/27 14:51:14;;;;;;;6.5;4.5;;;;;;;4.77;81.4043;915.2712;;;;
2021/11/27 14:53:39;;;;;;;5.3;4;;;;;;;4.78;81.02148;915.2444;;;;